Rinchinlhumbe, Mongolia
Current Conditions -  °F | °C
As of 10:00 PM on Thursday 29 Jan 2015 (Local Time) from UIII Reporting Station
Clear Clear  
Wind Chill:   Ceiling: Unl
Heat Index:   Visibility: 6mi
Dew Point: -9°   Wind: 2mph
Humidity: 66%   Direction: NA
Pressure: 30.39"   Gusts: NA
Location:  51.11°N, 99.67°E
Report Text: UIII 291400Z VRB01MPS CAVOK M18/M23 Q1029 NOSIG RMK QFE729/097212810360
Loading
Personal Weather Stations






























Interactive Weather Map New forecast layout! Learn more

10-Day Weather Forecast

Advertisements
Track Severe Weather on mobile